sensor_id;sensor_type;location;lat;lon;timestamp;P1;durP1;ratioP1;P2;durP2;ratioP2
1308;SDS011;647;48.840;9.314;2022-08-30T00:02:16;61.13;;;5.07;;
1308;SDS011;647;48.840;9.314;2022-08-30T00:04:46;61.27;;;5.07;;
1308;SDS011;647;48.840;9.314;2022-08-30T00:07:13;62.30;;;6.10;;
1308;SDS011;647;48.840;9.314;2022-08-30T00:09:40;61.20;;;5.17;;
1308;SDS011;647;48.840;9.314;2022-08-30T00:12:07;62.53;;;6.00;;
1308;SDS011;647;48.840;9.314;2022-08-30T00:14:35;63.10;;;5.73;;
1308;SDS011;647;48.840;9.314;2022-08-30T00:17:02;61.73;;;6.20;;
1308;SDS011;647;48.840;9.314;2022-08-30T00:19:29;60.60;;;5.27;;
1308;SDS011;647;48.840;9.314;2022-08-30T00:21:58;62.50;;;6.37;;
1308;SDS011;647;48.840;9.314;2022-08-30T00:24:25;61.67;;;5.30;;
1308;SDS011;647;48.840;9.314;2022-08-30T00:26:52;60.47;;;4.60;;
1308;SDS011;647;48.840;9.314;2022-08-30T00:29:19;60.37;;;4.60;;
1308;SDS011;647;48.840;9.314;2022-08-30T00:31:46;60.17;;;5.03;;
1308;SDS011;647;48.840;9.314;2022-08-30T00:34:14;60.60;;;4.70;;
1308;SDS011;647;48.840;9.314;2022-08-30T00:36:41;60.60;;;5.17;;
1308;SDS011;647;48.840;9.314;2022-08-30T00:39:10;61.23;;;5.43;;
1308;SDS011;647;48.840;9.314;2022-08-30T00:41:37;63.17;;;5.90;;
1308;SDS011;647;48.840;9.314;2022-08-30T00:44:04;60.93;;;4.40;;
1308;SDS011;647;48.840;9.314;2022-08-30T00:46:31;61.60;;;6.17;;
1308;SDS011;647;48.840;9.314;2022-08-30T00:48:59;61.53;;;5.50;;
1308;SDS011;647;48.840;9.314;2022-08-30T00:51:28;61.90;;;5.57;;
1308;SDS011;647;48.840;9.314;2022-08-30T00:53:56;61.20;;;5.10;;
1308;SDS011;647;48.840;9.314;2022-08-30T00:56:24;60.97;;;4.57;;
1308;SDS011;647;48.840;9.314;2022-08-30T00:58:52;60.50;;;5.30;;
1308;SDS011;647;48.840;9.314;2022-08-30T01:01:21;62.67;;;6.67;;
1308;SDS011;647;48.840;9.314;2022-08-30T01:03:48;60.90;;;5.73;;
1308;SDS011;647;48.840;9.314;2022-08-30T01:06:16;60.97;;;4.57;;
1308;SDS011;647;48.840;9.314;2022-08-30T01:08:44;60.83;;;5.60;;
1308;SDS011;647;48.840;9.314;2022-08-30T01:11:11;62.20;;;6.17;;
1308;SDS011;647;48.840;9.314;2022-08-30T01:13:40;60.77;;;4.77;;
1308;SDS011;647;48.840;9.314;2022-08-30T01:16:07;62.07;;;6.07;;
1308;SDS011;647;48.840;9.314;2022-08-30T01:18:34;61.70;;;5.23;;
1308;SDS011;647;48.840;9.314;2022-08-30T01:21:03;61.40;;;5.40;;
1308;SDS011;647;48.840;9.314;2022-08-30T01:23:37;62.00;;;5.27;;
1308;SDS011;647;48.840;9.314;2022-08-30T01:26:05;62.20;;;5.70;;
1308;SDS011;647;48.840;9.314;2022-08-30T01:28:32;61.43;;;4.80;;
1308;SDS011;647;48.840;9.314;2022-08-30T01:31:00;60.63;;;5.53;;
1308;SDS011;647;48.840;9.314;2022-08-30T01:33:27;61.77;;;5.07;;
1308;SDS011;647;48.840;9.314;2022-08-30T01:35:55;63.87;;;5.80;;
1308;SDS011;647;48.840;9.314;2022-08-30T01:38:23;63.60;;;5.87;;
1308;SDS011;647;48.840;9.314;2022-08-30T01:40:56;61.17;;;5.03;;
1308;SDS011;647;48.840;9.314;2022-08-30T01:43:24;62.17;;;5.43;;
1308;SDS011;647;48.840;9.314;2022-08-30T01:45:51;62.03;;;5.63;;
1308;SDS011;647;48.840;9.314;2022-08-30T01:48:18;62.23;;;5.87;;
1308;SDS011;647;48.840;9.314;2022-08-30T01:50:46;62.53;;;6.77;;
1308;SDS011;647;48.840;9.314;2022-08-30T01:53:13;61.10;;;5.07;;
1308;SDS011;647;48.840;9.314;2022-08-30T01:55:40;60.53;;;4.93;;
1308;SDS011;647;48.840;9.314;2022-08-30T01:58:09;62.87;;;5.53;;
1308;SDS011;647;48.840;9.314;2022-08-30T02:00:36;62.10;;;6.07;;
1308;SDS011;647;48.840;9.314;2022-08-30T02:03:04;60.87;;;5.53;;
1308;SDS011;647;48.840;9.314;2022-08-30T02:05:31;62.70;;;6.07;;
1308;SDS011;647;48.840;9.314;2022-08-30T02:07:58;60.60;;;5.10;;
1308;SDS011;647;48.840;9.314;2022-08-30T02:10:25;61.60;;;5.10;;
1308;SDS011;647;48.840;9.314;2022-08-30T02:12:53;61.80;;;5.33;;
1308;SDS011;647;48.840;9.314;2022-08-30T02:15:22;61.60;;;5.40;;
1308;SDS011;647;48.840;9.314;2022-08-30T02:17:49;61.33;;;4.50;;
1308;SDS011;647;48.840;9.314;2022-08-30T02:20:16;61.73;;;5.27;;
1308;SDS011;647;48.840;9.314;2022-08-30T02:22:43;61.70;;;5.40;;
1308;SDS011;647;48.840;9.314;2022-08-30T02:25:11;62.90;;;5.53;;
1308;SDS011;647;48.840;9.314;2022-08-30T02:27:38;63.60;;;5.90;;
1308;SDS011;647;48.840;9.314;2022-08-30T02:30:06;61.40;;;5.70;;
1308;SDS011;647;48.840;9.314;2022-08-30T02:32:35;61.67;;;5.60;;
1308;SDS011;647;48.840;9.314;2022-08-30T02:35:03;61.33;;;5.20;;
1308;SDS011;647;48.840;9.314;2022-08-30T02:37:30;64.30;;;5.67;;
1308;SDS011;647;48.840;9.314;2022-08-30T02:39:57;62.20;;;5.60;;
1308;SDS011;647;48.840;9.314;2022-08-30T02:42:24;60.93;;;5.13;;
1308;SDS011;647;48.840;9.314;2022-08-30T02:44:51;60.67;;;5.57;;
1308;SDS011;647;48.840;9.314;2022-08-30T02:47:18;63.50;;;5.47;;
1308;SDS011;647;48.840;9.314;2022-08-30T02:49:47;62.07;;;5.97;;
1308;SDS011;647;48.840;9.314;2022-08-30T02:52:14;62.40;;;5.40;;
1308;SDS011;647;48.840;9.314;2022-08-30T02:54:41;61.10;;;4.60;;
1308;SDS011;647;48.840;9.314;2022-08-30T02:57:08;60.47;;;5.10;;
1308;SDS011;647;48.840;9.314;2022-08-30T02:59:37;61.47;;;5.37;;
1308;SDS011;647;48.840;9.314;2022-08-30T03:02:09;61.93;;;5.23;;
1308;SDS011;647;48.840;9.314;2022-08-30T03:04:36;62.87;;;5.90;;
1308;SDS011;647;48.840;9.314;2022-08-30T03:07:05;67.40;;;7.13;;
1308;SDS011;647;48.840;9.314;2022-08-30T03:09:33;62.77;;;5.73;;
1308;SDS011;647;48.840;9.314;2022-08-30T03:12:00;60.97;;;5.80;;
1308;SDS011;647;48.840;9.314;2022-08-30T03:14:28;61.97;;;5.87;;
1308;SDS011;647;48.840;9.314;2022-08-30T03:16:56;61.80;;;5.70;;
1308;SDS011;647;48.840;9.314;2022-08-30T03:19:23;60.87;;;5.33;;
1308;SDS011;647;48.840;9.314;2022-08-30T03:21:51;63.30;;;5.80;;
1308;SDS011;647;48.840;9.314;2022-08-30T03:24:19;61.37;;;5.03;;
1308;SDS011;647;48.840;9.314;2022-08-30T03:26:47;62.00;;;5.30;;
1308;SDS011;647;48.840;9.314;2022-08-30T03:29:14;61.30;;;4.87;;
1308;SDS011;647;48.840;9.314;2022-08-30T03:31:41;61.93;;;5.10;;
1308;SDS011;647;48.840;9.314;2022-08-30T03:34:08;60.77;;;5.50;;
1308;SDS011;647;48.840;9.314;2022-08-30T03:36:35;59.73;;;4.20;;
1308;SDS011;647;48.840;9.314;2022-08-30T03:39:03;61.70;;;5.40;;
1308;SDS011;647;48.840;9.314;2022-08-30T03:41:31;61.80;;;5.10;;
1308;SDS011;647;48.840;9.314;2022-08-30T03:43:58;60.50;;;4.60;;
1308;SDS011;647;48.840;9.314;2022-08-30T03:46:26;60.70;;;5.10;;
1308;SDS011;647;48.840;9.314;2022-08-30T03:48:53;65.83;;;5.80;;
1308;SDS011;647;48.840;9.314;2022-08-30T03:51:21;61.83;;;5.60;;
1308;SDS011;647;48.840;9.314;2022-08-30T03:53:48;62.30;;;5.70;;
1308;SDS011;647;48.840;9.314;2022-08-30T03:56:15;63.00;;;5.10;;
1308;SDS011;647;48.840;9.314;2022-08-30T03:58:44;60.67;;;5.30;;
1308;SDS011;647;48.840;9.314;2022-08-30T04:01:11;61.00;;;4.70;;
1308;SDS011;647;48.840;9.314;2022-08-30T04:03:38;61.20;;;5.67;;
1308;SDS011;647;48.840;9.314;2022-08-30T04:06:05;62.30;;;5.03;;
1308;SDS011;647;48.840;9.314;2022-08-30T04:08:32;61.10;;;5.20;;
1308;SDS011;647;48.840;9.314;2022-08-30T04:11:00;61.20;;;5.63;;
1308;SDS011;647;48.840;9.314;2022-08-30T04:13:27;61.13;;;5.20;;
1308;SDS011;647;48.840;9.314;2022-08-30T04:15:56;61.23;;;5.37;;
1308;SDS011;647;48.840;9.314;2022-08-30T04:18:23;62.03;;;5.77;;
1308;SDS011;647;48.840;9.314;2022-08-30T04:20:51;62.13;;;5.80;;
1308;SDS011;647;48.840;9.314;2022-08-30T04:23:18;61.40;;;5.23;;
1308;SDS011;647;48.840;9.314;2022-08-30T04:25:45;61.57;;;5.37;;
1308;SDS011;647;48.840;9.314;2022-08-30T04:28:13;62.97;;;6.03;;
1308;SDS011;647;48.840;9.314;2022-08-30T04:30:40;65.80;;;5.80;;
1308;SDS011;647;48.840;9.314;2022-08-30T04:33:09;60.73;;;4.93;;
1308;SDS011;647;48.840;9.314;2022-08-30T04:35:39;62.77;;;5.90;;
1308;SDS011;647;48.840;9.314;2022-08-30T04:38:06;63.10;;;7.13;;
1308;SDS011;647;48.840;9.314;2022-08-30T04:40:33;61.80;;;4.97;;
1308;SDS011;647;48.840;9.314;2022-08-30T04:43:00;62.70;;;6.20;;
1308;SDS011;647;48.840;9.314;2022-08-30T04:45:28;61.33;;;5.67;;
1308;SDS011;647;48.840;9.314;2022-08-30T04:47:55;63.87;;;6.30;;
1308;SDS011;647;48.840;9.314;2022-08-30T04:50:23;63.70;;;5.77;;
1308;SDS011;647;48.840;9.314;2022-08-30T04:52:50;60.80;;;5.40;;
1308;SDS011;647;48.840;9.314;2022-08-30T04:55:18;63.47;;;6.77;;
1308;SDS011;647;48.840;9.314;2022-08-30T04:57:45;63.10;;;6.70;;
1308;SDS011;647;48.840;9.314;2022-08-30T05:00:13;62.90;;;6.57;;
1308;SDS011;647;48.840;9.314;2022-08-30T05:02:40;62.50;;;5.80;;
1308;SDS011;647;48.840;9.314;2022-08-30T05:05:08;62.70;;;6.10;;
1308;SDS011;647;48.840;9.314;2022-08-30T05:07:54;62.60;;;6.70;;
1308;SDS011;647;48.840;9.314;2022-08-30T05:10:22;61.87;;;5.73;;
1308;SDS011;647;48.840;9.314;2022-08-30T05:12:51;67.00;;;5.80;;
1308;SDS011;647;48.840;9.314;2022-08-30T05:15:18;65.13;;;5.60;;
1308;SDS011;647;48.840;9.314;2022-08-30T05:17:46;60.93;;;6.00;;
1308;SDS011;647;48.840;9.314;2022-08-30T05:20:14;63.27;;;5.10;;
1308;SDS011;647;48.840;9.314;2022-08-30T05:22:42;60.67;;;5.07;;
1308;SDS011;647;48.840;9.314;2022-08-30T05:25:15;61.40;;;5.90;;
1308;SDS011;647;48.840;9.314;2022-08-30T05:27:42;62.23;;;5.70;;
1308;SDS011;647;48.840;9.314;2022-08-30T05:30:10;63.00;;;6.53;;
1308;SDS011;647;48.840;9.314;2022-08-30T05:32:37;61.33;;;5.90;;
1308;SDS011;647;48.840;9.314;2022-08-30T05:35:05;61.80;;;5.47;;
1308;SDS011;647;48.840;9.314;2022-08-30T05:37:32;64.03;;;6.37;;
1308;SDS011;647;48.840;9.314;2022-08-30T05:39:59;60.67;;;6.03;;
1308;SDS011;647;48.840;9.314;2022-08-30T05:42:28;61.00;;;5.00;;
1308;SDS011;647;48.840;9.314;2022-08-30T05:44:55;61.43;;;6.17;;
1308;SDS011;647;48.840;9.314;2022-08-30T05:47:22;61.20;;;4.93;;
1308;SDS011;647;48.840;9.314;2022-08-30T05:49:49;61.80;;;5.63;;
1308;SDS011;647;48.840;9.314;2022-08-30T05:52:17;61.97;;;5.87;;
1308;SDS011;647;48.840;9.314;2022-08-30T05:54:44;60.70;;;4.77;;
1308;SDS011;647;48.840;9.314;2022-08-30T05:57:11;62.33;;;5.23;;
1308;SDS011;647;48.840;9.314;2022-08-30T05:59:39;63.83;;;5.47;;
1308;SDS011;647;48.840;9.314;2022-08-30T06:02:07;60.87;;;5.00;;
1308;SDS011;647;48.840;9.314;2022-08-30T06:04:34;61.00;;;5.10;;
1308;SDS011;647;48.840;9.314;2022-08-30T06:07:01;60.37;;;5.23;;
1308;SDS011;647;48.840;9.314;2022-08-30T06:09:29;60.60;;;5.53;;
1308;SDS011;647;48.840;9.314;2022-08-30T06:11:56;60.93;;;5.37;;
1308;SDS011;647;48.840;9.314;2022-08-30T06:14:23;59.27;;;3.93;;
1308;SDS011;647;48.840;9.314;2022-08-30T06:16:52;61.60;;;5.53;;
1308;SDS011;647;48.840;9.314;2022-08-30T06:19:19;59.90;;;4.97;;
1308;SDS011;647;48.840;9.314;2022-08-30T06:21:47;62.27;;;4.80;;
1308;SDS011;647;48.840;9.314;2022-08-30T06:24:15;61.40;;;4.40;;
1308;SDS011;647;48.840;9.314;2022-08-30T06:26:44;62.00;;;5.60;;
1308;SDS011;647;48.840;9.314;2022-08-30T06:29:12;61.83;;;4.57;;
1308;SDS011;647;48.840;9.314;2022-08-30T06:31:40;60.97;;;5.40;;
1308;SDS011;647;48.840;9.314;2022-08-30T06:34:08;60.40;;;5.37;;
1308;SDS011;647;48.840;9.314;2022-08-30T06:36:35;61.03;;;5.17;;
1308;SDS011;647;48.840;9.314;2022-08-30T06:39:03;61.20;;;5.20;;
1308;SDS011;647;48.840;9.314;2022-08-30T06:41:32;66.23;;;6.00;;
1308;SDS011;647;48.840;9.314;2022-08-30T06:44:00;61.13;;;5.50;;
1308;SDS011;647;48.840;9.314;2022-08-30T06:46:28;60.67;;;5.03;;
1308;SDS011;647;48.840;9.314;2022-08-30T06:48:57;60.27;;;4.23;;
1308;SDS011;647;48.840;9.314;2022-08-30T06:51:26;70.00;;;7.70;;
1308;SDS011;647;48.840;9.314;2022-08-30T06:53:54;61.93;;;4.63;;
1308;SDS011;647;48.840;9.314;2022-08-30T06:56:21;60.90;;;4.90;;
1308;SDS011;647;48.840;9.314;2022-08-30T06:58:49;60.47;;;4.83;;
1308;SDS011;647;48.840;9.314;2022-08-30T07:01:16;60.40;;;5.07;;
1308;SDS011;647;48.840;9.314;2022-08-30T07:03:44;60.80;;;5.87;;
1308;SDS011;647;48.840;9.314;2022-08-30T07:06:11;59.90;;;4.23;;
1308;SDS011;647;48.840;9.314;2022-08-30T07:08:40;61.40;;;5.73;;
1308;SDS011;647;48.840;9.314;2022-08-30T07:11:07;59.43;;;4.50;;
1308;SDS011;647;48.840;9.314;2022-08-30T07:13:35;59.53;;;4.10;;
1308;SDS011;647;48.840;9.314;2022-08-30T07:16:07;61.90;;;4.23;;
1308;SDS011;647;48.840;9.314;2022-08-30T07:18:34;60.07;;;4.30;;
1308;SDS011;647;48.840;9.314;2022-08-30T07:21:19;60.00;;;4.50;;
1308;SDS011;647;48.840;9.314;2022-08-30T07:23:48;59.60;;;3.97;;
1308;SDS011;647;48.840;9.314;2022-08-30T07:26:16;76.33;;;4.73;;
1308;SDS011;647;48.840;9.314;2022-08-30T07:28:44;59.50;;;4.40;;
1308;SDS011;647;48.840;9.314;2022-08-30T07:31:14;60.63;;;4.10;;
1308;SDS011;647;48.840;9.314;2022-08-30T07:33:42;63.63;;;4.87;;
1308;SDS011;647;48.840;9.314;2022-08-30T07:36:09;61.20;;;4.37;;
1308;SDS011;647;48.840;9.314;2022-08-30T07:38:37;60.20;;;4.03;;
1308;SDS011;647;48.840;9.314;2022-08-30T07:41:06;60.17;;;4.30;;
1308;SDS011;647;48.840;9.314;2022-08-30T07:43:33;60.67;;;4.63;;
1308;SDS011;647;48.840;9.314;2022-08-30T07:46:01;59.10;;;4.13;;
1308;SDS011;647;48.840;9.314;2022-08-30T07:48:29;60.13;;;4.93;;
1308;SDS011;647;48.840;9.314;2022-08-30T07:50:56;60.57;;;4.20;;
1308;SDS011;647;48.840;9.314;2022-08-30T07:53:23;60.00;;;4.23;;
1308;SDS011;647;48.840;9.314;2022-08-30T07:55:50;59.97;;;3.80;;
1308;SDS011;647;48.840;9.314;2022-08-30T07:58:19;61.70;;;4.10;;
1308;SDS011;647;48.840;9.314;2022-08-30T08:00:46;60.93;;;3.67;;
1308;SDS011;647;48.840;9.314;2022-08-30T08:03:13;60.83;;;4.10;;
1308;SDS011;647;48.840;9.314;2022-08-30T08:05:41;60.67;;;3.83;;
1308;SDS011;647;48.840;9.314;2022-08-30T08:08:09;59.57;;;5.00;;
1308;SDS011;647;48.840;9.314;2022-08-30T08:10:36;60.00;;;4.23;;
1308;SDS011;647;48.840;9.314;2022-08-30T08:13:04;60.10;;;4.23;;
1308;SDS011;647;48.840;9.314;2022-08-30T08:15:32;59.27;;;3.80;;
1308;SDS011;647;48.840;9.314;2022-08-30T08:18:00;60.07;;;4.07;;
1308;SDS011;647;48.840;9.314;2022-08-30T08:20:27;59.43;;;3.80;;
1308;SDS011;647;48.840;9.314;2022-08-30T08:22:54;59.47;;;3.70;;
1308;SDS011;647;48.840;9.314;2022-08-30T08:25:21;60.43;;;4.00;;
1308;SDS011;647;48.840;9.314;2022-08-30T08:27:49;59.40;;;3.60;;
1308;SDS011;647;48.840;9.314;2022-08-30T08:30:16;60.67;;;4.43;;
1308;SDS011;647;48.840;9.314;2022-08-30T08:32:45;59.70;;;3.90;;
1308;SDS011;647;48.840;9.314;2022-08-30T08:35:13;60.40;;;4.10;;
1308;SDS011;647;48.840;9.314;2022-08-30T08:37:40;60.07;;;5.03;;
1308;SDS011;647;48.840;9.314;2022-08-30T08:40:08;59.20;;;3.60;;
1308;SDS011;647;48.840;9.314;2022-08-30T08:42:39;60.87;;;4.10;;
1308;SDS011;647;48.840;9.314;2022-08-30T08:45:12;59.27;;;3.80;;
1308;SDS011;647;48.840;9.314;2022-08-30T08:47:41;62.63;;;5.30;;
1308;SDS011;647;48.840;9.314;2022-08-30T08:50:11;60.20;;;4.67;;
1308;SDS011;647;48.840;9.314;2022-08-30T08:52:43;59.60;;;3.80;;
1308;SDS011;647;48.840;9.314;2022-08-30T08:55:29;60.73;;;4.00;;
1308;SDS011;647;48.840;9.314;2022-08-30T08:57:56;60.80;;;3.60;;
1308;SDS011;647;48.840;9.314;2022-08-30T09:00:23;61.60;;;4.93;;
1308;SDS011;647;48.840;9.314;2022-08-30T09:02:54;60.23;;;4.27;;
1308;SDS011;647;48.840;9.314;2022-08-30T09:05:25;59.30;;;3.63;;
1308;SDS011;647;48.840;9.314;2022-08-30T09:07:54;59.60;;;4.30;;
1308;SDS011;647;48.840;9.314;2022-08-30T09:10:23;60.10;;;4.27;;
1308;SDS011;647;48.840;9.314;2022-08-30T09:12:51;59.73;;;3.90;;
1308;SDS011;647;48.840;9.314;2022-08-30T09:15:19;58.60;;;3.63;;
1308;SDS011;647;48.840;9.314;2022-08-30T09:17:49;59.60;;;4.10;;
1308;SDS011;647;48.840;9.314;2022-08-30T09:20:24;59.57;;;3.93;;
1308;SDS011;647;48.840;9.314;2022-08-30T09:22:51;58.27;;;3.73;;
1308;SDS011;647;48.840;9.314;2022-08-30T09:25:19;60.30;;;4.10;;
1308;SDS011;647;48.840;9.314;2022-08-30T09:27:49;59.03;;;3.73;;
1308;SDS011;647;48.840;9.314;2022-08-30T09:30:17;59.20;;;4.00;;
1308;SDS011;647;48.840;9.314;2022-08-30T09:32:49;59.07;;;3.53;;
1308;SDS011;647;48.840;9.314;2022-08-30T09:35:18;58.67;;;3.90;;
1308;SDS011;647;48.840;9.314;2022-08-30T09:37:50;60.03;;;4.27;;
1308;SDS011;647;48.840;9.314;2022-08-30T09:40:21;58.77;;;3.40;;
1308;SDS011;647;48.840;9.314;2022-08-30T09:42:57;59.00;;;3.57;;
1308;SDS011;647;48.840;9.314;2022-08-30T09:45:28;59.07;;;3.60;;
1308;SDS011;647;48.840;9.314;2022-08-30T09:47:55;58.57;;;3.73;;
1308;SDS011;647;48.840;9.314;2022-08-30T09:50:23;58.97;;;4.10;;
1308;SDS011;647;48.840;9.314;2022-08-30T09:53:01;58.57;;;3.33;;
1308;SDS011;647;48.840;9.314;2022-08-30T09:58:20;58.60;;;3.33;;
1308;SDS011;647;48.840;9.314;2022-08-30T10:00:49;59.17;;;3.43;;
1308;SDS011;647;48.840;9.314;2022-08-30T10:03:20;58.67;;;3.30;;
1308;SDS011;647;48.840;9.314;2022-08-30T10:05:51;59.10;;;3.70;;
1308;SDS011;647;48.840;9.314;2022-08-30T10:08:25;58.33;;;3.30;;
1308;SDS011;647;48.840;9.314;2022-08-30T10:10:56;58.53;;;3.47;;
1308;SDS011;647;48.840;9.314;2022-08-30T10:13:40;59.00;;;3.90;;
1308;SDS011;647;48.840;9.314;2022-08-30T10:16:12;61.40;;;3.90;;
1308;SDS011;647;48.840;9.314;2022-08-30T10:18:42;57.87;;;3.10;;
1308;SDS011;647;48.840;9.314;2022-08-30T10:21:12;58.23;;;3.00;;
1308;SDS011;647;48.840;9.314;2022-08-30T10:23:43;58.30;;;3.50;;
1308;SDS011;647;48.840;9.314;2022-08-30T10:26:12;57.50;;;2.73;;
1308;SDS011;647;48.840;9.314;2022-08-30T10:28:42;58.00;;;3.30;;
1308;SDS011;647;48.840;9.314;2022-08-30T10:31:11;57.07;;;2.87;;
1308;SDS011;647;48.840;9.314;2022-08-30T10:33:41;57.70;;;2.80;;
1308;SDS011;647;48.840;9.314;2022-08-30T10:36:10;58.40;;;3.07;;
1308;SDS011;647;48.840;9.314;2022-08-30T10:38:38;58.63;;;3.27;;
1308;SDS011;647;48.840;9.314;2022-08-30T10:41:09;57.80;;;3.20;;
1308;SDS011;647;48.840;9.314;2022-08-30T10:43:41;57.00;;;2.47;;
1308;SDS011;647;48.840;9.314;2022-08-30T10:46:10;57.43;;;2.93;;
1308;SDS011;647;48.840;9.314;2022-08-30T10:48:41;58.10;;;3.30;;
1308;SDS011;647;48.840;9.314;2022-08-30T10:51:11;58.27;;;3.33;;
1308;SDS011;647;48.840;9.314;2022-08-30T10:53:42;57.00;;;2.90;;
1308;SDS011;647;48.840;9.314;2022-08-30T10:56:13;58.00;;;2.93;;
1308;SDS011;647;48.840;9.314;2022-08-30T10:58:41;57.30;;;3.43;;
1308;SDS011;647;48.840;9.314;2022-08-30T11:01:15;57.30;;;2.80;;
1308;SDS011;647;48.840;9.314;2022-08-30T11:03:56;58.47;;;3.27;;
1308;SDS011;647;48.840;9.314;2022-08-30T11:06:30;58.30;;;4.20;;
1308;SDS011;647;48.840;9.314;2022-08-30T11:09:07;57.40;;;3.20;;
1308;SDS011;647;48.840;9.314;2022-08-30T11:11:40;57.87;;;3.40;;
1308;SDS011;647;48.840;9.314;2022-08-30T11:14:12;60.20;;;2.90;;
1308;SDS011;647;48.840;9.314;2022-08-30T11:16:42;56.73;;;3.23;;
1308;SDS011;647;48.840;9.314;2022-08-30T11:19:12;57.87;;;3.60;;
1308;SDS011;647;48.840;9.314;2022-08-30T11:21:40;57.20;;;2.90;;
1308;SDS011;647;48.840;9.314;2022-08-30T11:24:09;57.73;;;3.50;;
1308;SDS011;647;48.840;9.314;2022-08-30T11:26:52;57.10;;;2.93;;
1308;SDS011;647;48.840;9.314;2022-08-30T11:29:32;57.70;;;3.40;;
1308;SDS011;647;48.840;9.314;2022-08-30T11:32:17;57.80;;;3.07;;
1308;SDS011;647;48.840;9.314;2022-08-30T11:34:58;58.30;;;3.80;;
1308;SDS011;647;48.840;9.314;2022-08-30T11:37:33;57.67;;;3.27;;
1308;SDS011;647;48.840;9.314;2022-08-30T11:40:02;58.63;;;3.27;;
1308;SDS011;647;48.840;9.314;2022-08-30T11:42:35;57.40;;;2.93;;
1308;SDS011;647;48.840;9.314;2022-08-30T11:47:48;57.70;;;3.40;;
1308;SDS011;647;48.840;9.314;2022-08-30T11:50:16;58.20;;;3.43;;
1308;SDS011;647;48.840;9.314;2022-08-30T11:52:49;57.50;;;2.90;;
1308;SDS011;647;48.840;9.314;2022-08-30T11:55:26;57.97;;;3.10;;
1308;SDS011;647;48.840;9.314;2022-08-30T11:57:57;58.03;;;3.00;;
1308;SDS011;647;48.840;9.314;2022-08-30T12:00:32;59.50;;;3.50;;
1308;SDS011;647;48.840;9.314;2022-08-30T12:03:00;58.37;;;3.27;;
1308;SDS011;647;48.840;9.314;2022-08-30T12:08:10;57.80;;;3.00;;
1308;SDS011;647;48.840;9.314;2022-08-30T12:11:00;58.37;;;2.90;;
1308;SDS011;647;48.840;9.314;2022-08-30T12:16:13;57.47;;;2.83;;
1308;SDS011;647;48.840;9.314;2022-08-30T12:18:44;59.30;;;3.53;;
1308;SDS011;647;48.840;9.314;2022-08-30T12:21:12;57.93;;;3.37;;
1308;SDS011;647;48.840;9.314;2022-08-30T12:23:45;58.00;;;2.90;;
1308;SDS011;647;48.840;9.314;2022-08-30T12:26:16;57.50;;;2.60;;
1308;SDS011;647;48.840;9.314;2022-08-30T12:28:44;58.90;;;3.53;;
1308;SDS011;647;48.840;9.314;2022-08-30T12:31:14;58.30;;;3.07;;
1308;SDS011;647;48.840;9.314;2022-08-30T12:33:42;58.47;;;3.40;;
1308;SDS011;647;48.840;9.314;2022-08-30T12:36:13;58.37;;;3.17;;
1308;SDS011;647;48.840;9.314;2022-08-30T12:38:41;58.70;;;3.17;;
1308;SDS011;647;48.840;9.314;2022-08-30T12:41:15;58.30;;;3.10;;
1308;SDS011;647;48.840;9.314;2022-08-30T12:43:48;58.30;;;3.37;;
1308;SDS011;647;48.840;9.314;2022-08-30T12:46:15;59.47;;;3.53;;
1308;SDS011;647;48.840;9.314;2022-08-30T12:48:43;58.00;;;2.83;;
1308;SDS011;647;48.840;9.314;2022-08-30T12:51:24;61.10;;;3.90;;
1308;SDS011;647;48.840;9.314;2022-08-30T12:53:52;58.20;;;3.60;;
1308;SDS011;647;48.840;9.314;2022-08-30T12:56:19;58.10;;;3.47;;
1308;SDS011;647;48.840;9.314;2022-08-30T12:58:49;58.30;;;3.43;;
1308;SDS011;647;48.840;9.314;2022-08-30T13:01:18;57.60;;;3.20;;
1308;SDS011;647;48.840;9.314;2022-08-30T13:06:40;58.10;;;2.80;;
1308;SDS011;647;48.840;9.314;2022-08-30T13:09:09;57.60;;;2.90;;
1308;SDS011;647;48.840;9.314;2022-08-30T13:11:37;58.20;;;3.83;;
1308;SDS011;647;48.840;9.314;2022-08-30T13:14:19;57.80;;;3.23;;
1308;SDS011;647;48.840;9.314;2022-08-30T13:16:46;58.20;;;3.40;;
1308;SDS011;647;48.840;9.314;2022-08-30T13:19:23;57.80;;;3.20;;
1308;SDS011;647;48.840;9.314;2022-08-30T13:21:52;58.27;;;3.13;;
1308;SDS011;647;48.840;9.314;2022-08-30T13:24:20;57.47;;;3.00;;
1308;SDS011;647;48.840;9.314;2022-08-30T13:26:48;57.60;;;3.03;;
1308;SDS011;647;48.840;9.314;2022-08-30T13:29:16;57.57;;;3.13;;
1308;SDS011;647;48.840;9.314;2022-08-30T13:31:45;57.67;;;3.00;;
1308;SDS011;647;48.840;9.314;2022-08-30T13:34:12;57.70;;;3.13;;
1308;SDS011;647;48.840;9.314;2022-08-30T13:36:43;57.60;;;3.30;;
1308;SDS011;647;48.840;9.314;2022-08-30T13:39:13;56.97;;;2.90;;
1308;SDS011;647;48.840;9.314;2022-08-30T13:41:40;56.90;;;2.70;;
1308;SDS011;647;48.840;9.314;2022-08-30T13:44:08;57.87;;;3.10;;
1308;SDS011;647;48.840;9.314;2022-08-30T13:46:35;57.30;;;2.93;;
1308;SDS011;647;48.840;9.314;2022-08-30T13:49:06;57.30;;;3.37;;
1308;SDS011;647;48.840;9.314;2022-08-30T13:51:34;56.67;;;2.87;;
1308;SDS011;647;48.840;9.314;2022-08-30T13:54:01;57.77;;;3.03;;
1308;SDS011;647;48.840;9.314;2022-08-30T13:56:29;57.70;;;3.33;;
1308;SDS011;647;48.840;9.314;2022-08-30T13:58:56;57.53;;;3.10;;
1308;SDS011;647;48.840;9.314;2022-08-30T14:01:23;57.80;;;3.03;;
1308;SDS011;647;48.840;9.314;2022-08-30T14:03:50;57.10;;;2.80;;
1308;SDS011;647;48.840;9.314;2022-08-30T14:06:19;57.20;;;3.00;;
1308;SDS011;647;48.840;9.314;2022-08-30T14:08:46;57.40;;;3.00;;
1308;SDS011;647;48.840;9.314;2022-08-30T14:11:14;57.10;;;3.00;;
1308;SDS011;647;48.840;9.314;2022-08-30T14:13:41;57.40;;;3.00;;
1308;SDS011;647;48.840;9.314;2022-08-30T14:16:09;57.90;;;3.30;;
1308;SDS011;647;48.840;9.314;2022-08-30T14:18:36;57.50;;;2.90;;
1308;SDS011;647;48.840;9.314;2022-08-30T14:21:03;56.90;;;3.00;;
1308;SDS011;647;48.840;9.314;2022-08-30T14:23:31;59.23;;;3.03;;
1308;SDS011;647;48.840;9.314;2022-08-30T14:25:58;57.10;;;2.53;;
1308;SDS011;647;48.840;9.314;2022-08-30T14:28:29;57.47;;;3.10;;
1308;SDS011;647;48.840;9.314;2022-08-30T14:30:56;57.57;;;3.30;;
1308;SDS011;647;48.840;9.314;2022-08-30T14:33:23;57.27;;;3.00;;
1308;SDS011;647;48.840;9.314;2022-08-30T14:35:50;58.03;;;3.07;;
1308;SDS011;647;48.840;9.314;2022-08-30T14:38:17;58.50;;;3.50;;
1308;SDS011;647;48.840;9.314;2022-08-30T14:40:46;58.30;;;3.70;;
1308;SDS011;647;48.840;9.314;2022-08-30T14:43:13;57.73;;;3.20;;
1308;SDS011;647;48.840;9.314;2022-08-30T14:45:40;58.17;;;3.40;;
1308;SDS011;647;48.840;9.314;2022-08-30T14:48:07;57.20;;;3.00;;
1308;SDS011;647;48.840;9.314;2022-08-30T14:50:34;57.67;;;3.57;;
1308;SDS011;647;48.840;9.314;2022-08-30T14:53:02;57.93;;;3.33;;
1308;SDS011;647;48.840;9.314;2022-08-30T14:55:29;57.60;;;3.20;;
1308;SDS011;647;48.840;9.314;2022-08-30T14:57:59;61.40;;;3.73;;
1308;SDS011;647;48.840;9.314;2022-08-30T15:00:26;58.27;;;3.30;;
1308;SDS011;647;48.840;9.314;2022-08-30T15:02:53;58.27;;;3.63;;
1308;SDS011;647;48.840;9.314;2022-08-30T15:05:20;57.90;;;2.90;;
1308;SDS011;647;48.840;9.314;2022-08-30T15:07:48;58.30;;;3.20;;
1308;SDS011;647;48.840;9.314;2022-08-30T15:10:17;57.90;;;3.17;;
1308;SDS011;647;48.840;9.314;2022-08-30T15:12:45;58.30;;;3.70;;
1308;SDS011;647;48.840;9.314;2022-08-30T15:15:15;57.97;;;3.43;;
1308;SDS011;647;48.840;9.314;2022-08-30T15:17:43;58.17;;;3.13;;
1308;SDS011;647;48.840;9.314;2022-08-30T15:20:10;58.30;;;3.17;;
1308;SDS011;647;48.840;9.314;2022-08-30T15:22:38;58.00;;;3.23;;
1308;SDS011;647;48.840;9.314;2022-08-30T15:25:05;57.87;;;2.70;;
1308;SDS011;647;48.840;9.314;2022-08-30T15:27:33;58.33;;;3.10;;
1308;SDS011;647;48.840;9.314;2022-08-30T15:30:00;60.23;;;2.90;;
1308;SDS011;647;48.840;9.314;2022-08-30T15:32:28;58.50;;;3.30;;
1308;SDS011;647;48.840;9.314;2022-08-30T15:34:55;58.47;;;3.10;;
1308;SDS011;647;48.840;9.314;2022-08-30T15:37:24;61.10;;;3.50;;
1308;SDS011;647;48.840;9.314;2022-08-30T15:39:52;57.90;;;3.10;;